sensor_id;sensor_type;location;lat;lon;timestamp;P1;durP1;ratioP1;P2;durP2;ratioP2
47772;SDS011;33534;51.028;13.716;2023-04-06T00:01:01;9.73;;;6.20;;
47772;SDS011;33534;51.028;13.716;2023-04-06T00:03:27;10.48;;;7.18;;
47772;SDS011;33534;51.028;13.716;2023-04-06T00:05:53;10.60;;;6.63;;
47772;SDS011;33534;51.028;13.716;2023-04-06T00:08:20;10.23;;;6.55;;
47772;SDS011;33534;51.028;13.716;2023-04-06T00:10:48;11.73;;;7.13;;
47772;SDS011;33534;51.028;13.716;2023-04-06T00:13:14;13.82;;;6.60;;
47772;SDS011;33534;51.028;13.716;2023-04-06T00:15:40;13.23;;;7.13;;
47772;SDS011;33534;51.028;13.716;2023-04-06T00:18:06;11.48;;;7.03;;
47772;SDS011;33534;51.028;13.716;2023-04-06T00:20:32;12.43;;;6.70;;
47772;SDS011;33534;51.028;13.716;2023-04-06T00:22:58;11.65;;;6.05;;
47772;SDS011;33534;51.028;13.716;2023-04-06T00:25:25;11.57;;;6.75;;
47772;SDS011;33534;51.028;13.716;2023-04-06T00:27:51;10.45;;;6.45;;
47772;SDS011;33534;51.028;13.716;2023-04-06T00:30:17;11.18;;;7.18;;
47772;SDS011;33534;51.028;13.716;2023-04-06T00:32:43;9.10;;;6.50;;
47772;SDS011;33534;51.028;13.716;2023-04-06T00:35:09;13.05;;;8.50;;
47772;SDS011;33534;51.028;13.716;2023-04-06T00:37:35;13.55;;;7.97;;
47772;SDS011;33534;51.028;13.716;2023-04-06T00:40:02;11.02;;;6.82;;
47772;SDS011;33534;51.028;13.716;2023-04-06T00:42:28;12.10;;;6.90;;
47772;SDS011;33534;51.028;13.716;2023-04-06T00:44:55;12.30;;;7.15;;
47772;SDS011;33534;51.028;13.716;2023-04-06T00:47:21;10.77;;;7.03;;
47772;SDS011;33534;51.028;13.716;2023-04-06T00:49:47;11.52;;;5.53;;
47772;SDS011;33534;51.028;13.716;2023-04-06T00:52:14;9.30;;;6.30;;
47772;SDS011;33534;51.028;13.716;2023-04-06T00:54:40;11.68;;;5.95;;
47772;SDS011;33534;51.028;13.716;2023-04-06T00:57:06;9.57;;;6.03;;
47772;SDS011;33534;51.028;13.716;2023-04-06T00:59:32;9.75;;;5.38;;
47772;SDS011;33534;51.028;13.716;2023-04-06T01:01:58;8.27;;;5.80;;
47772;SDS011;33534;51.028;13.716;2023-04-06T01:04:24;10.50;;;6.07;;
47772;SDS011;33534;51.028;13.716;2023-04-06T01:06:50;14.43;;;6.13;;
47772;SDS011;33534;51.028;13.716;2023-04-06T01:09:16;11.82;;;5.95;;
47772;SDS011;33534;51.028;13.716;2023-04-06T01:11:43;8.93;;;5.95;;
47772;SDS011;33534;51.028;13.716;2023-04-06T01:14:09;10.52;;;5.60;;
47772;SDS011;33534;51.028;13.716;2023-04-06T01:16:35;8.88;;;5.50;;
47772;SDS011;33534;51.028;13.716;2023-04-06T01:19:01;8.75;;;5.72;;
47772;SDS011;33534;51.028;13.716;2023-04-06T01:21:32;10.85;;;5.32;;
47772;SDS011;33534;51.028;13.716;2023-04-06T01:23:58;12.15;;;5.75;;
47772;SDS011;33534;51.028;13.716;2023-04-06T01:26:24;9.65;;;5.35;;
47772;SDS011;33534;51.028;13.716;2023-04-06T01:28:51;10.77;;;5.82;;
47772;SDS011;33534;51.028;13.716;2023-04-06T01:31:17;11.07;;;5.70;;
47772;SDS011;33534;51.028;13.716;2023-04-06T01:33:43;7.95;;;4.82;;
47772;SDS011;33534;51.028;13.716;2023-04-06T01:36:10;7.55;;;5.35;;
47772;SDS011;33534;51.028;13.716;2023-04-06T01:38:36;10.48;;;5.35;;
47772;SDS011;33534;51.028;13.716;2023-04-06T01:41:02;8.55;;;5.50;;
47772;SDS011;33534;51.028;13.716;2023-04-06T01:43:28;9.00;;;5.20;;
47772;SDS011;33534;51.028;13.716;2023-04-06T01:45:54;10.05;;;5.95;;
47772;SDS011;33534;51.028;13.716;2023-04-06T01:48:20;10.60;;;5.85;;
47772;SDS011;33534;51.028;13.716;2023-04-06T01:50:46;11.90;;;5.88;;
47772;SDS011;33534;51.028;13.716;2023-04-06T01:53:12;14.35;;;5.25;;
47772;SDS011;33534;51.028;13.716;2023-04-06T01:55:39;8.82;;;5.35;;
47772;SDS011;33534;51.028;13.716;2023-04-06T01:58:05;7.40;;;5.10;;
47772;SDS011;33534;51.028;13.716;2023-04-06T02:00:31;9.70;;;4.88;;
47772;SDS011;33534;51.028;13.716;2023-04-06T02:02:57;9.40;;;5.47;;
47772;SDS011;33534;51.028;13.716;2023-04-06T02:05:23;9.07;;;5.40;;
47772;SDS011;33534;51.028;13.716;2023-04-06T02:07:49;10.00;;;5.65;;
47772;SDS011;33534;51.028;13.716;2023-04-06T02:10:16;9.55;;;5.15;;
47772;SDS011;33534;51.028;13.716;2023-04-06T02:12:42;11.77;;;5.32;;
47772;SDS011;33534;51.028;13.716;2023-04-06T02:15:08;9.43;;;5.20;;
47772;SDS011;33534;51.028;13.716;2023-04-06T02:17:35;9.50;;;5.85;;
47772;SDS011;33534;51.028;13.716;2023-04-06T02:20:01;7.65;;;4.70;;
47772;SDS011;33534;51.028;13.716;2023-04-06T02:22:27;8.98;;;5.10;;
47772;SDS011;33534;51.028;13.716;2023-04-06T02:24:53;9.18;;;4.85;;
47772;SDS011;33534;51.028;13.716;2023-04-06T02:27:19;7.28;;;4.50;;
47772;SDS011;33534;51.028;13.716;2023-04-06T02:29:45;8.35;;;4.97;;
47772;SDS011;33534;51.028;13.716;2023-04-06T02:32:11;7.32;;;4.60;;
47772;SDS011;33534;51.028;13.716;2023-04-06T02:34:37;8.63;;;4.38;;
47772;SDS011;33534;51.028;13.716;2023-04-06T02:37:03;6.25;;;4.68;;
47772;SDS011;33534;51.028;13.716;2023-04-06T02:39:29;7.63;;;4.63;;
47772;SDS011;33534;51.028;13.716;2023-04-06T02:41:55;9.15;;;4.55;;
47772;SDS011;33534;51.028;13.716;2023-04-06T02:44:22;9.00;;;4.95;;
47772;SDS011;33534;51.028;13.716;2023-04-06T02:46:48;6.90;;;4.85;;
47772;SDS011;33534;51.028;13.716;2023-04-06T02:49:15;9.52;;;5.28;;
47772;SDS011;33534;51.028;13.716;2023-04-06T02:51:41;7.50;;;4.35;;
47772;SDS011;33534;51.028;13.716;2023-04-06T02:54:07;8.90;;;5.10;;
47772;SDS011;33534;51.028;13.716;2023-04-06T02:56:33;7.60;;;4.40;;
47772;SDS011;33534;51.028;13.716;2023-04-06T02:58:59;12.23;;;5.50;;
47772;SDS011;33534;51.028;13.716;2023-04-06T03:01:26;8.23;;;5.30;;
47772;SDS011;33534;51.028;13.716;2023-04-06T03:03:52;7.72;;;4.95;;
47772;SDS011;33534;51.028;13.716;2023-04-06T03:06:18;11.02;;;5.47;;
47772;SDS011;33534;51.028;13.716;2023-04-06T03:08:44;6.65;;;4.93;;
47772;SDS011;33534;51.028;13.716;2023-04-06T03:11:10;6.38;;;4.57;;
47772;SDS011;33534;51.028;13.716;2023-04-06T03:13:37;10.50;;;5.07;;
47772;SDS011;33534;51.028;13.716;2023-04-06T03:16:06;8.23;;;4.80;;
47772;SDS011;33534;51.028;13.716;2023-04-06T03:18:32;7.47;;;5.20;;
47772;SDS011;33534;51.028;13.716;2023-04-06T03:20:58;13.95;;;5.90;;
47772;SDS011;33534;51.028;13.716;2023-04-06T03:23:25;10.07;;;5.00;;
47772;SDS011;33534;51.028;13.716;2023-04-06T03:25:51;9.25;;;5.22;;
47772;SDS011;33534;51.028;13.716;2023-04-06T03:28:17;6.18;;;4.65;;
47772;SDS011;33534;51.028;13.716;2023-04-06T03:30:43;8.65;;;4.93;;
47772;SDS011;33534;51.028;13.716;2023-04-06T03:33:09;8.68;;;4.97;;
47772;SDS011;33534;51.028;13.716;2023-04-06T03:35:35;7.43;;;5.10;;
47772;SDS011;33534;51.028;13.716;2023-04-06T03:38:02;11.07;;;5.05;;
47772;SDS011;33534;51.028;13.716;2023-04-06T03:40:28;9.68;;;5.50;;
47772;SDS011;33534;51.028;13.716;2023-04-06T03:42:54;8.18;;;4.82;;
47772;SDS011;33534;51.028;13.716;2023-04-06T03:45:20;9.10;;;4.78;;
47772;SDS011;33534;51.028;13.716;2023-04-06T03:47:46;7.38;;;4.47;;
47772;SDS011;33534;51.028;13.716;2023-04-06T03:50:12;11.45;;;5.63;;
47772;SDS011;33534;51.028;13.716;2023-04-06T03:52:38;9.65;;;4.85;;
47772;SDS011;33534;51.028;13.716;2023-04-06T03:55:04;8.52;;;5.22;;
47772;SDS011;33534;51.028;13.716;2023-04-06T03:57:30;8.60;;;5.00;;
47772;SDS011;33534;51.028;13.716;2023-04-06T03:59:57;9.55;;;6.13;;
47772;SDS011;33534;51.028;13.716;2023-04-06T04:02:23;5.72;;;4.25;;
47772;SDS011;33534;51.028;13.716;2023-04-06T04:04:49;9.05;;;4.82;;
47772;SDS011;33534;51.028;13.716;2023-04-06T04:07:15;6.05;;;4.45;;
47772;SDS011;33534;51.028;13.716;2023-04-06T04:09:41;8.52;;;5.03;;
47772;SDS011;33534;51.028;13.716;2023-04-06T04:12:07;10.50;;;5.10;;
47772;SDS011;33534;51.028;13.716;2023-04-06T04:14:33;7.55;;;4.93;;
47772;SDS011;33534;51.028;13.716;2023-04-06T04:16:59;13.25;;;5.10;;
47772;SDS011;33534;51.028;13.716;2023-04-06T04:19:25;9.00;;;4.72;;
47772;SDS011;33534;51.028;13.716;2023-04-06T04:21:51;10.88;;;5.07;;
47772;SDS011;33534;51.028;13.716;2023-04-06T04:24:17;6.57;;;4.78;;
47772;SDS011;33534;51.028;13.716;2023-04-06T04:26:43;9.07;;;5.00;;
47772;SDS011;33534;51.028;13.716;2023-04-06T04:29:09;11.30;;;5.22;;
47772;SDS011;33534;51.028;13.716;2023-04-06T04:31:35;12.38;;;5.90;;
47772;SDS011;33534;51.028;13.716;2023-04-06T04:34:01;13.82;;;5.40;;
47772;SDS011;33534;51.028;13.716;2023-04-06T04:36:28;9.93;;;5.35;;
47772;SDS011;33534;51.028;13.716;2023-04-06T04:38:54;14.88;;;6.53;;
47772;SDS011;33534;51.028;13.716;2023-04-06T04:41:20;9.43;;;5.65;;
47772;SDS011;33534;51.028;13.716;2023-04-06T04:43:46;7.05;;;4.93;;
47772;SDS011;33534;51.028;13.716;2023-04-06T04:46:12;8.85;;;5.10;;
47772;SDS011;33534;51.028;13.716;2023-04-06T04:48:38;7.22;;;5.13;;
47772;SDS011;33534;51.028;13.716;2023-04-06T04:51:05;11.95;;;6.07;;
47772;SDS011;33534;51.028;13.716;2023-04-06T04:53:31;9.15;;;4.68;;
47772;SDS011;33534;51.028;13.716;2023-04-06T04:55:57;7.38;;;4.88;;
47772;SDS011;33534;51.028;13.716;2023-04-06T04:58:23;12.27;;;6.18;;
47772;SDS011;33534;51.028;13.716;2023-04-06T05:00:49;15.88;;;7.20;;
47772;SDS011;33534;51.028;13.716;2023-04-06T05:03:19;14.73;;;7.43;;
47772;SDS011;33534;51.028;13.716;2023-04-06T05:05:45;9.38;;;5.07;;
47772;SDS011;33534;51.028;13.716;2023-04-06T05:08:11;11.27;;;6.10;;
47772;SDS011;33534;51.028;13.716;2023-04-06T05:10:38;11.88;;;7.57;;
47772;SDS011;33534;51.028;13.716;2023-04-06T05:13:04;9.15;;;4.93;;
47772;SDS011;33534;51.028;13.716;2023-04-06T05:15:30;8.60;;;4.72;;
47772;SDS011;33534;51.028;13.716;2023-04-06T05:17:56;7.05;;;4.03;;
47772;SDS011;33534;51.028;13.716;2023-04-06T05:20:22;10.45;;;4.53;;
47772;SDS011;33534;51.028;13.716;2023-04-06T05:22:48;8.23;;;4.55;;
47772;SDS011;33534;51.028;13.716;2023-04-06T05:25:15;7.35;;;4.28;;
47772;SDS011;33534;51.028;13.716;2023-04-06T05:27:41;6.60;;;4.07;;
47772;SDS011;33534;51.028;13.716;2023-04-06T05:30:07;6.75;;;4.18;;
47772;SDS011;33534;51.028;13.716;2023-04-06T05:32:33;9.60;;;3.97;;
47772;SDS011;33534;51.028;13.716;2023-04-06T05:35:00;9.48;;;3.92;;
47772;SDS011;33534;51.028;13.716;2023-04-06T05:37:26;7.07;;;3.83;;
47772;SDS011;33534;51.028;13.716;2023-04-06T05:39:52;8.60;;;4.78;;
47772;SDS011;33534;51.028;13.716;2023-04-06T05:42:18;7.07;;;4.60;;
47772;SDS011;33534;51.028;13.716;2023-04-06T05:44:44;7.63;;;4.50;;
47772;SDS011;33534;51.028;13.716;2023-04-06T05:47:10;7.38;;;3.72;;
47772;SDS011;33534;51.028;13.716;2023-04-06T05:49:36;9.82;;;4.28;;
47772;SDS011;33534;51.028;13.716;2023-04-06T05:52:02;7.53;;;4.32;;
47772;SDS011;33534;51.028;13.716;2023-04-06T05:54:29;7.75;;;3.95;;
47772;SDS011;33534;51.028;13.716;2023-04-06T05:56:55;11.60;;;4.53;;
47772;SDS011;33534;51.028;13.716;2023-04-06T05:59:21;9.23;;;4.45;;
47772;SDS011;33534;51.028;13.716;2023-04-06T06:01:48;8.85;;;4.38;;
47772;SDS011;33534;51.028;13.716;2023-04-06T06:04:14;6.45;;;3.78;;
47772;SDS011;33534;51.028;13.716;2023-04-06T06:06:40;13.90;;;4.93;;
47772;SDS011;33534;51.028;13.716;2023-04-06T06:09:06;8.38;;;4.25;;
47772;SDS011;33534;51.028;13.716;2023-04-06T06:11:32;11.32;;;4.40;;
47772;SDS011;33534;51.028;13.716;2023-04-06T06:13:58;10.38;;;4.53;;
47772;SDS011;33534;51.028;13.716;2023-04-06T06:16:24;11.52;;;4.80;;
47772;SDS011;33534;51.028;13.716;2023-04-06T06:18:50;10.63;;;4.53;;
47772;SDS011;33534;51.028;13.716;2023-04-06T06:21:16;8.75;;;4.65;;
47772;SDS011;33534;51.028;13.716;2023-04-06T06:23:42;11.40;;;4.97;;
47772;SDS011;33534;51.028;13.716;2023-04-06T06:26:09;7.20;;;4.50;;
47772;SDS011;33534;51.028;13.716;2023-04-06T06:28:35;6.22;;;4.25;;
47772;SDS011;33534;51.028;13.716;2023-04-06T06:31:01;6.85;;;4.32;;
47772;SDS011;33534;51.028;13.716;2023-04-06T06:33:27;11.65;;;4.65;;
47772;SDS011;33534;51.028;13.716;2023-04-06T06:35:53;8.07;;;4.57;;
47772;SDS011;33534;51.028;13.716;2023-04-06T06:38:19;10.90;;;4.63;;
47772;SDS011;33534;51.028;13.716;2023-04-06T06:40:45;6.95;;;4.20;;
47772;SDS011;33534;51.028;13.716;2023-04-06T06:43:12;7.78;;;4.95;;
47772;SDS011;33534;51.028;13.716;2023-04-06T06:45:38;6.85;;;4.43;;
47772;SDS011;33534;51.028;13.716;2023-04-06T06:48:04;10.45;;;4.30;;
47772;SDS011;33534;51.028;13.716;2023-04-06T06:50:30;9.25;;;4.40;;
47772;SDS011;33534;51.028;13.716;2023-04-06T06:52:56;9.20;;;4.53;;
47772;SDS011;33534;51.028;13.716;2023-04-06T06:55:22;6.60;;;4.40;;
47772;SDS011;33534;51.028;13.716;2023-04-06T06:57:48;7.03;;;4.75;;
47772;SDS011;33534;51.028;13.716;2023-04-06T07:00:14;8.60;;;4.70;;
47772;SDS011;33534;51.028;13.716;2023-04-06T07:02:41;9.25;;;5.28;;
47772;SDS011;33534;51.028;13.716;2023-04-06T07:05:07;7.53;;;4.80;;
47772;SDS011;33534;51.028;13.716;2023-04-06T07:07:33;8.30;;;4.80;;
47772;SDS011;33534;51.028;13.716;2023-04-06T07:09:59;11.73;;;4.70;;
47772;SDS011;33534;51.028;13.716;2023-04-06T07:12:25;6.93;;;4.50;;
47772;SDS011;33534;51.028;13.716;2023-04-06T07:14:52;8.52;;;4.78;;
47772;SDS011;33534;51.028;13.716;2023-04-06T07:17:18;8.20;;;4.35;;
47772;SDS011;33534;51.028;13.716;2023-04-06T07:19:44;13.02;;;5.00;;
47772;SDS011;33534;51.028;13.716;2023-04-06T07:22:11;7.40;;;4.80;;
47772;SDS011;33534;51.028;13.716;2023-04-06T07:24:37;9.55;;;5.13;;
47772;SDS011;33534;51.028;13.716;2023-04-06T07:27:03;6.63;;;4.43;;
47772;SDS011;33534;51.028;13.716;2023-04-06T07:29:29;11.95;;;4.63;;
47772;SDS011;33534;51.028;13.716;2023-04-06T07:31:55;10.43;;;5.50;;
47772;SDS011;33534;51.028;13.716;2023-04-06T07:34:21;9.45;;;5.00;;
47772;SDS011;33534;51.028;13.716;2023-04-06T07:36:47;9.52;;;4.70;;
47772;SDS011;33534;51.028;13.716;2023-04-06T07:39:13;9.32;;;4.70;;
47772;SDS011;33534;51.028;13.716;2023-04-06T07:41:40;11.20;;;4.78;;
47772;SDS011;33534;51.028;13.716;2023-04-06T07:44:06;8.05;;;5.03;;
47772;SDS011;33534;51.028;13.716;2023-04-06T07:46:32;9.25;;;5.47;;
47772;SDS011;33534;51.028;13.716;2023-04-06T07:48:59;8.77;;;6.32;;
47772;SDS011;33534;51.028;13.716;2023-04-06T07:51:29;8.98;;;5.53;;
47772;SDS011;33534;51.028;13.716;2023-04-06T07:53:55;8.93;;;5.53;;
47772;SDS011;33534;51.028;13.716;2023-04-06T07:56:22;8.98;;;5.63;;
47772;SDS011;33534;51.028;13.716;2023-04-06T07:58:48;11.32;;;5.95;;
47772;SDS011;33534;51.028;13.716;2023-04-06T08:01:14;8.55;;;4.95;;
47772;SDS011;33534;51.028;13.716;2023-04-06T08:03:40;9.27;;;4.93;;
47772;SDS011;33534;51.028;13.716;2023-04-06T08:06:06;6.95;;;4.80;;
47772;SDS011;33534;51.028;13.716;2023-04-06T08:08:32;7.80;;;4.35;;
47772;SDS011;33534;51.028;13.716;2023-04-06T08:11:01;9.73;;;5.05;;
47772;SDS011;33534;51.028;13.716;2023-04-06T08:13:28;9.43;;;4.60;;
47772;SDS011;33534;51.028;13.716;2023-04-06T08:15:54;7.90;;;4.30;;
47772;SDS011;33534;51.028;13.716;2023-04-06T08:18:26;8.23;;;4.70;;
47772;SDS011;33534;51.028;13.716;2023-04-06T08:20:54;8.77;;;4.72;;
47772;SDS011;33534;51.028;13.716;2023-04-06T08:23:20;11.57;;;5.13;;
47772;SDS011;33534;51.028;13.716;2023-04-06T08:25:46;9.02;;;4.63;;
47772;SDS011;33534;51.028;13.716;2023-04-06T08:28:12;8.32;;;4.80;;
47772;SDS011;33534;51.028;13.716;2023-04-06T08:30:42;7.15;;;4.88;;
47772;SDS011;33534;51.028;13.716;2023-04-06T08:33:08;8.95;;;5.30;;
47772;SDS011;33534;51.028;13.716;2023-04-06T08:35:35;15.07;;;5.22;;
47772;SDS011;33534;51.028;13.716;2023-04-06T08:38:01;8.80;;;4.90;;
47772;SDS011;33534;51.028;13.716;2023-04-06T08:40:27;7.10;;;4.78;;
47772;SDS011;33534;51.028;13.716;2023-04-06T08:42:56;6.00;;;4.78;;
47772;SDS011;33534;51.028;13.716;2023-04-06T08:45:24;13.55;;;4.72;;
47772;SDS011;33534;51.028;13.716;2023-04-06T08:47:50;8.43;;;5.22;;
47772;SDS011;33534;51.028;13.716;2023-04-06T08:50:20;8.85;;;4.90;;
47772;SDS011;33534;51.028;13.716;2023-04-06T08:52:47;8.45;;;4.60;;
47772;SDS011;33534;51.028;13.716;2023-04-06T08:55:14;8.00;;;4.45;;
47772;SDS011;33534;51.028;13.716;2023-04-06T08:57:41;8.55;;;4.38;;
47772;SDS011;33534;51.028;13.716;2023-04-06T09:00:07;7.32;;;4.28;;
47772;SDS011;33534;51.028;13.716;2023-04-06T09:02:36;8.43;;;4.85;;
47772;SDS011;33534;51.028;13.716;2023-04-06T09:05:04;6.68;;;4.53;;
47772;SDS011;33534;51.028;13.716;2023-04-06T09:07:30;5.57;;;3.83;;
47772;SDS011;33534;51.028;13.716;2023-04-06T09:09:56;6.57;;;4.18;;
47772;SDS011;33534;51.028;13.716;2023-04-06T09:12:26;5.88;;;4.20;;
47772;SDS011;33534;51.028;13.716;2023-04-06T09:14:52;9.07;;;4.38;;
47772;SDS011;33534;51.028;13.716;2023-04-06T09:19:48;8.10;;;4.00;;
47772;SDS011;33534;51.028;13.716;2023-04-06T09:22:14;10.07;;;4.35;;
47772;SDS011;33534;51.028;13.716;2023-04-06T09:24:43;6.72;;;4.35;;
47772;SDS011;33534;51.028;13.716;2023-04-06T09:27:10;10.85;;;4.45;;
47772;SDS011;33534;51.028;13.716;2023-04-06T09:29:36;6.90;;;4.15;;
47772;SDS011;33534;51.028;13.716;2023-04-06T09:32:03;5.97;;;3.58;;
47772;SDS011;33534;51.028;13.716;2023-04-06T09:34:32;4.88;;;3.78;;
47772;SDS011;33534;51.028;13.716;2023-04-06T09:36:58;7.60;;;4.00;;
47772;SDS011;33534;51.028;13.716;2023-04-06T09:39:27;6.97;;;3.90;;
47772;SDS011;33534;51.028;13.716;2023-04-06T09:41:53;5.50;;;3.45;;
47772;SDS011;33534;51.028;13.716;2023-04-06T09:44:20;5.13;;;3.47;;
47772;SDS011;33534;51.028;13.716;2023-04-06T09:46:48;4.18;;;3.38;;
47772;SDS011;33534;51.028;13.716;2023-04-06T09:49:14;6.15;;;3.88;;
47772;SDS011;33534;51.028;13.716;2023-04-06T09:54:07;3.50;;;3.20;;
47772;SDS011;33534;51.028;13.716;2023-04-06T09:56:37;6.85;;;4.07;;
47772;SDS011;33534;51.028;13.716;2023-04-06T09:59:07;4.57;;;3.10;;
47772;SDS011;33534;51.028;13.716;2023-04-06T10:01:34;6.18;;;3.88;;
47772;SDS011;33534;51.028;13.716;2023-04-06T10:06:43;8.40;;;3.92;;
47772;SDS011;33534;51.028;13.716;2023-04-06T10:09:10;5.55;;;3.75;;
47772;SDS011;33534;51.028;13.716;2023-04-06T10:11:38;10.00;;;4.00;;
47772;SDS011;33534;51.028;13.716;2023-04-06T10:14:05;4.88;;;3.45;;
47772;SDS011;33534;51.028;13.716;2023-04-06T10:16:31;4.95;;;3.80;;
47772;SDS011;33534;51.028;13.716;2023-04-06T10:19:02;5.40;;;3.60;;
47772;SDS011;33534;51.028;13.716;2023-04-06T10:21:30;5.28;;;3.40;;
47772;SDS011;33534;51.028;13.716;2023-04-06T10:23:58;5.68;;;3.65;;
47772;SDS011;33534;51.028;13.716;2023-04-06T10:26:25;4.80;;;3.67;;
47772;SDS011;33534;51.028;13.716;2023-04-06T10:28:51;8.55;;;4.03;;
47772;SDS011;33534;51.028;13.716;2023-04-06T10:31:25;6.40;;;3.60;;
47772;SDS011;33534;51.028;13.716;2023-04-06T10:33:59;5.05;;;3.63;;
47772;SDS011;33534;51.028;13.716;2023-04-06T10:36:26;6.72;;;3.42;;
47772;SDS011;33534;51.028;13.716;2023-04-06T10:38:54;5.07;;;3.90;;
47772;SDS011;33534;51.028;13.716;2023-04-06T10:41:22;4.90;;;3.53;;
47772;SDS011;33534;51.028;13.716;2023-04-06T10:43:54;5.75;;;3.38;;
47772;SDS011;33534;51.028;13.716;2023-04-06T10:46:27;4.57;;;3.38;;
47772;SDS011;33534;51.028;13.716;2023-04-06T10:48:54;6.78;;;3.60;;
47772;SDS011;33534;51.028;13.716;2023-04-06T10:51:24;5.18;;;3.58;;
47772;SDS011;33534;51.028;13.716;2023-04-06T10:53:54;4.63;;;3.78;;
47772;SDS011;33534;51.028;13.716;2023-04-06T10:56:22;5.57;;;4.07;;
47772;SDS011;33534;51.028;13.716;2023-04-06T10:58:52;6.75;;;3.70;;
47772;SDS011;33534;51.028;13.716;2023-04-06T11:01:19;4.78;;;3.13;;
47772;SDS011;33534;51.028;13.716;2023-04-06T11:03:46;6.57;;;3.45;;
47772;SDS011;33534;51.028;13.716;2023-04-06T11:06:23;4.35;;;3.63;;
47772;SDS011;33534;51.028;13.716;2023-04-06T11:08:52;6.07;;;3.80;;
47772;SDS011;33534;51.028;13.716;2023-04-06T11:11:19;7.00;;;3.30;;
47772;SDS011;33534;51.028;13.716;2023-04-06T11:13:46;4.82;;;3.40;;
47772;SDS011;33534;51.028;13.716;2023-04-06T11:16:13;8.52;;;4.18;;
47772;SDS011;33534;51.028;13.716;2023-04-06T11:18:55;5.97;;;3.88;;
47772;SDS011;33534;51.028;13.716;2023-04-06T11:21:35;4.25;;;3.20;;
47772;SDS011;33534;51.028;13.716;2023-04-06T11:26:39;6.18;;;3.15;;
47772;SDS011;33534;51.028;13.716;2023-04-06T11:29:06;7.70;;;3.90;;
47772;SDS011;33534;51.028;13.716;2023-04-06T11:31:37;4.85;;;3.67;;
47772;SDS011;33534;51.028;13.716;2023-04-06T11:34:08;5.28;;;4.13;;
47772;SDS011;33534;51.028;13.716;2023-04-06T11:36:35;7.22;;;3.72;;
47772;SDS011;33534;51.028;13.716;2023-04-06T11:39:02;7.45;;;4.25;;
47772;SDS011;33534;51.028;13.716;2023-04-06T11:41:28;6.28;;;4.30;;
47772;SDS011;33534;51.028;13.716;2023-04-06T11:43:55;4.45;;;3.58;;
47772;SDS011;33534;51.028;13.716;2023-04-06T11:46:21;6.05;;;4.25;;
47772;SDS011;33534;51.028;13.716;2023-04-06T11:48:47;6.05;;;3.88;;
47772;SDS011;33534;51.028;13.716;2023-04-06T11:51:21;6.90;;;3.78;;
47772;SDS011;33534;51.028;13.716;2023-04-06T11:53:48;7.28;;;3.55;;
47772;SDS011;33534;51.028;13.716;2023-04-06T11:56:27;6.03;;;3.88;;
47772;SDS011;33534;51.028;13.716;2023-04-06T11:58:54;5.45;;;3.92;;
47772;SDS011;33534;51.028;13.716;2023-04-06T12:01:21;5.93;;;3.65;;
47772;SDS011;33534;51.028;13.716;2023-04-06T12:03:47;5.38;;;3.42;;
47772;SDS011;33534;51.028;13.716;2023-04-06T12:06:13;5.90;;;3.53;;
47772;SDS011;33534;51.028;13.716;2023-04-06T12:08:39;6.72;;;3.47;;
47772;SDS011;33534;51.028;13.716;2023-04-06T12:11:05;4.07;;;3.30;;
47772;SDS011;33534;51.028;13.716;2023-04-06T12:13:32;8.27;;;3.55;;
47772;SDS011;33534;51.028;13.716;2023-04-06T12:15:58;5.22;;;3.20;;
47772;SDS011;33534;51.028;13.716;2023-04-06T12:18:24;5.43;;;3.72;;
47772;SDS011;33534;51.028;13.716;2023-04-06T12:20:51;6.93;;;3.78;;
47772;SDS011;33534;51.028;13.716;2023-04-06T12:23:17;6.20;;;3.97;;
47772;SDS011;33534;51.028;13.716;2023-04-06T12:25:43;6.43;;;4.22;;
47772;SDS011;33534;51.028;13.716;2023-04-06T12:28:09;3.95;;;3.30;;
47772;SDS011;33534;51.028;13.716;2023-04-06T12:30:35;5.25;;;3.55;;
47772;SDS011;33534;51.028;13.716;2023-04-06T12:33:01;6.25;;;3.75;;
47772;SDS011;33534;51.028;13.716;2023-04-06T12:35:27;5.40;;;3.85;;
47772;SDS011;33534;51.028;13.716;2023-04-06T12:37:53;6.60;;;3.83;;
47772;SDS011;33534;51.028;13.716;2023-04-06T12:40:20;5.28;;;3.83;;
47772;SDS011;33534;51.028;13.716;2023-04-06T12:42:46;9.55;;;3.78;;
47772;SDS011;33534;51.028;13.716;2023-04-06T12:45:12;9.27;;;4.18;;
47772;SDS011;33534;51.028;13.716;2023-04-06T12:47:38;6.35;;;3.75;;
47772;SDS011;33534;51.028;13.716;2023-04-06T12:50:04;8.05;;;5.60;;
47772;SDS011;33534;51.028;13.716;2023-04-06T12:52:31;9.65;;;3.85;;
47772;SDS011;33534;51.028;13.716;2023-04-06T12:55:00;5.43;;;3.85;;
47772;SDS011;33534;51.028;13.716;2023-04-06T12:57:26;9.77;;;4.07;;
47772;SDS011;33534;51.028;13.716;2023-04-06T12:59:52;7.50;;;4.00;;
47772;SDS011;33534;51.028;13.716;2023-04-06T13:02:18;6.00;;;3.92;;
47772;SDS011;33534;51.028;13.716;2023-04-06T13:04:50;8.70;;;4.32;;
47772;SDS011;33534;51.028;13.716;2023-04-06T13:07:17;6.10;;;3.97;;
47772;SDS011;33534;51.028;13.716;2023-04-06T13:09:43;7.45;;;4.22;;
47772;SDS011;33534;51.028;13.716;2023-04-06T13:12:12;7.35;;;4.32;;
47772;SDS011;33534;51.028;13.716;2023-04-06T13:14:38;6.88;;;4.45;;
47772;SDS011;33534;51.028;13.716;2023-04-06T13:17:04;6.50;;;3.92;;
47772;SDS011;33534;51.028;13.716;2023-04-06T13:19:31;6.85;;;4.00;;
47772;SDS011;33534;51.028;13.716;2023-04-06T13:21:57;7.45;;;4.05;;
47772;SDS011;33534;51.028;13.716;2023-04-06T13:24:23;6.90;;;4.07;;
47772;SDS011;33534;51.028;13.716;2023-04-06T13:26:49;5.93;;;3.58;;
47772;SDS011;33534;51.028;13.716;2023-04-06T13:29:15;4.97;;;3.60;;
47772;SDS011;33534;51.028;13.716;2023-04-06T13:31:41;5.97;;;3.97;;
47772;SDS011;33534;51.028;13.716;2023-04-06T13:34:07;5.25;;;3.38;;
47772;SDS011;33534;51.028;13.716;2023-04-06T13:36:33;6.80;;;4.13;;
47772;SDS011;33534;51.028;13.716;2023-04-06T13:39:00;6.10;;;3.97;;
47772;SDS011;33534;51.028;13.716;2023-04-06T13:41:26;6.22;;;3.88;;
47772;SDS011;33534;51.028;13.716;2023-04-06T13:43:52;5.30;;;3.70;;
47772;SDS011;33534;51.028;13.716;2023-04-06T13:46:18;10.05;;;4.05;;
47772;SDS011;33534;51.028;13.716;2023-04-06T13:48:44;8.70;;;4.43;;
47772;SDS011;33534;51.028;13.716;2023-04-06T13:51:12;6.68;;;4.20;;
47772;SDS011;33534;51.028;13.716;2023-04-06T13:53:38;5.78;;;3.50;;
47772;SDS011;33534;51.028;13.716;2023-04-06T13:56:05;7.90;;;3.63;;
47772;SDS011;33534;51.028;13.716;2023-04-06T13:58:31;4.65;;;3.60;;
47772;SDS011;33534;51.028;13.716;2023-04-06T14:01:04;6.40;;;4.03;;
47772;SDS011;33534;51.028;13.716;2023-04-06T14:03:31;4.53;;;3.53;;
47772;SDS011;33534;51.028;13.716;2023-04-06T14:05:57;6.85;;;4.40;;
47772;SDS011;33534;51.028;13.716;2023-04-06T14:08:23;8.65;;;4.38;;
47772;SDS011;33534;51.028;13.716;2023-04-06T14:10:49;7.90;;;4.10;;
47772;SDS011;33534;51.028;13.716;2023-04-06T14:13:15;4.18;;;3.45;;
47772;SDS011;33534;51.028;13.716;2023-04-06T14:15:42;5.22;;;3.55;;
47772;SDS011;33534;51.028;13.716;2023-04-06T14:18:08;6.90;;;4.07;;
47772;SDS011;33534;51.028;13.716;2023-04-06T14:20:34;7.07;;;4.18;;
47772;SDS011;33534;51.028;13.716;2023-04-06T14:23:00;5.75;;;3.53;;
47772;SDS011;33534;51.028;13.716;2023-04-06T14:25:27;4.90;;;3.75;;
47772;SDS011;33534;51.028;13.716;2023-04-06T14:27:53;5.28;;;3.47;;
47772;SDS011;33534;51.028;13.716;2023-04-06T14:30:19;5.82;;;3.90;;
47772;SDS011;33534;51.028;13.716;2023-04-06T14:32:45;5.05;;;4.03;;
47772;SDS011;33534;51.028;13.716;2023-04-06T14:35:11;5.68;;;3.40;;
47772;SDS011;33534;51.028;13.716;2023-04-06T14:37:37;5.78;;;3.83;;